sensor_id;sensor_type;location;lat;lon;timestamp;P1;durP1;ratioP1;P2;durP2;ratioP2
2462;SDS011;1243;54.298;10.172;2023-08-08T00:00:03;5.63;;;3.53;;
2462;SDS011;1243;54.298;10.172;2023-08-08T00:02:30;12.60;;;3.40;;
2462;SDS011;1243;54.298;10.172;2023-08-08T00:04:56;7.83;;;3.43;;
2462;SDS011;1243;54.298;10.172;2023-08-08T00:07:21;5.43;;;3.30;;
2462;SDS011;1243;54.298;10.172;2023-08-08T00:09:47;10.83;;;3.67;;
2462;SDS011;1243;54.298;10.172;2023-08-08T00:12:13;6.53;;;2.67;;
2462;SDS011;1243;54.298;10.172;2023-08-08T00:14:38;11.60;;;3.60;;
2462;SDS011;1243;54.298;10.172;2023-08-08T00:17:04;7.07;;;2.73;;
2462;SDS011;1243;54.298;10.172;2023-08-08T00:19:30;14.97;;;3.93;;
2462;SDS011;1243;54.298;10.172;2023-08-08T00:21:56;6.93;;;3.33;;
2462;SDS011;1243;54.298;10.172;2023-08-08T00:24:21;10.70;;;3.43;;
2462;SDS011;1243;54.298;10.172;2023-08-08T00:26:47;16.10;;;4.77;;
2462;SDS011;1243;54.298;10.172;2023-08-08T00:29:13;9.57;;;3.40;;
2462;SDS011;1243;54.298;10.172;2023-08-08T00:31:38;7.67;;;3.17;;
2462;SDS011;1243;54.298;10.172;2023-08-08T00:34:04;10.67;;;3.47;;
2462;SDS011;1243;54.298;10.172;2023-08-08T00:36:30;6.43;;;3.80;;
2462;SDS011;1243;54.298;10.172;2023-08-08T00:38:55;8.37;;;4.03;;
2462;SDS011;1243;54.298;10.172;2023-08-08T00:41:21;6.10;;;2.80;;
2462;SDS011;1243;54.298;10.172;2023-08-08T00:43:47;12.60;;;3.73;;
2462;SDS011;1243;54.298;10.172;2023-08-08T00:46:12;10.33;;;3.70;;
2462;SDS011;1243;54.298;10.172;2023-08-08T00:48:38;10.80;;;3.40;;
2462;SDS011;1243;54.298;10.172;2023-08-08T00:51:04;15.13;;;3.63;;
2462;SDS011;1243;54.298;10.172;2023-08-08T00:53:30;6.47;;;3.23;;
2462;SDS011;1243;54.298;10.172;2023-08-08T00:55:56;8.40;;;3.97;;
2462;SDS011;1243;54.298;10.172;2023-08-08T00:58:24;15.57;;;3.50;;
2462;SDS011;1243;54.298;10.172;2023-08-08T01:00:50;18.03;;;3.23;;
2462;SDS011;1243;54.298;10.172;2023-08-08T01:03:19;15.20;;;2.90;;
2462;SDS011;1243;54.298;10.172;2023-08-08T01:05:51;8.77;;;4.07;;
2462;SDS011;1243;54.298;10.172;2023-08-08T01:08:26;11.90;;;2.80;;
2462;SDS011;1243;54.298;10.172;2023-08-08T01:10:58;3.90;;;2.43;;
2462;SDS011;1243;54.298;10.172;2023-08-08T01:13:24;13.43;;;2.87;;
2462;SDS011;1243;54.298;10.172;2023-08-08T01:15:53;10.53;;;3.87;;
2462;SDS011;1243;54.298;10.172;2023-08-08T01:18:21;10.80;;;3.37;;
2462;SDS011;1243;54.298;10.172;2023-08-08T01:20:47;9.20;;;3.50;;
2462;SDS011;1243;54.298;10.172;2023-08-08T01:23:19;13.07;;;3.67;;
2462;SDS011;1243;54.298;10.172;2023-08-08T01:25:52;13.10;;;3.43;;
2462;SDS011;1243;54.298;10.172;2023-08-08T01:28:22;4.70;;;2.47;;
2462;SDS011;1243;54.298;10.172;2023-08-08T01:30:48;7.63;;;4.03;;
2462;SDS011;1243;54.298;10.172;2023-08-08T01:33:14;9.33;;;3.23;;
2462;SDS011;1243;54.298;10.172;2023-08-08T01:35:42;8.73;;;3.40;;
2462;SDS011;1243;54.298;10.172;2023-08-08T01:38:12;10.10;;;3.03;;
2462;SDS011;1243;54.298;10.172;2023-08-08T01:40:44;14.07;;;3.40;;
2462;SDS011;1243;54.298;10.172;2023-08-08T01:43:11;3.60;;;2.50;;
2462;SDS011;1243;54.298;10.172;2023-08-08T01:45:39;19.73;;;3.70;;
2462;SDS011;1243;54.298;10.172;2023-08-08T01:48:07;6.67;;;3.17;;
2462;SDS011;1243;54.298;10.172;2023-08-08T01:50:34;7.83;;;3.20;;
2462;SDS011;1243;54.298;10.172;2023-08-08T01:52:59;8.60;;;3.37;;
2462;SDS011;1243;54.298;10.172;2023-08-08T01:55:25;9.43;;;4.47;;
2462;SDS011;1243;54.298;10.172;2023-08-08T01:57:53;7.47;;;3.90;;
2462;SDS011;1243;54.298;10.172;2023-08-08T02:00:24;8.07;;;2.47;;
2462;SDS011;1243;54.298;10.172;2023-08-08T02:02:50;13.53;;;3.50;;
2462;SDS011;1243;54.298;10.172;2023-08-08T02:05:16;9.13;;;3.43;;
2462;SDS011;1243;54.298;10.172;2023-08-08T02:07:42;5.57;;;2.90;;
2462;SDS011;1243;54.298;10.172;2023-08-08T02:10:07;5.47;;;3.07;;
2462;SDS011;1243;54.298;10.172;2023-08-08T02:12:33;10.97;;;3.90;;
2462;SDS011;1243;54.298;10.172;2023-08-08T02:14:59;25.30;;;4.27;;
2462;SDS011;1243;54.298;10.172;2023-08-08T02:17:25;6.30;;;3.03;;
2462;SDS011;1243;54.298;10.172;2023-08-08T02:19:51;11.03;;;2.87;;
2462;SDS011;1243;54.298;10.172;2023-08-08T02:22:17;13.13;;;3.27;;
2462;SDS011;1243;54.298;10.172;2023-08-08T02:24:43;8.03;;;3.53;;
2462;SDS011;1243;54.298;10.172;2023-08-08T02:27:09;13.67;;;3.77;;
2462;SDS011;1243;54.298;10.172;2023-08-08T02:29:34;9.40;;;3.40;;
2462;SDS011;1243;54.298;10.172;2023-08-08T02:32:00;5.93;;;2.87;;
2462;SDS011;1243;54.298;10.172;2023-08-08T02:34:26;10.60;;;2.70;;
2462;SDS011;1243;54.298;10.172;2023-08-08T02:36:52;11.47;;;2.83;;
2462;SDS011;1243;54.298;10.172;2023-08-08T02:39:17;11.93;;;2.97;;
2462;SDS011;1243;54.298;10.172;2023-08-08T02:41:43;9.80;;;2.93;;
2462;SDS011;1243;54.298;10.172;2023-08-08T02:44:08;6.20;;;2.90;;
2462;SDS011;1243;54.298;10.172;2023-08-08T02:46:34;7.00;;;2.60;;
2462;SDS011;1243;54.298;10.172;2023-08-08T02:49:02;8.20;;;2.57;;
2462;SDS011;1243;54.298;10.172;2023-08-08T02:51:31;13.00;;;2.90;;
2462;SDS011;1243;54.298;10.172;2023-08-08T02:53:56;12.13;;;3.90;;
2462;SDS011;1243;54.298;10.172;2023-08-08T02:56:22;15.90;;;4.47;;
2462;SDS011;1243;54.298;10.172;2023-08-08T02:58:48;11.90;;;3.17;;
2462;SDS011;1243;54.298;10.172;2023-08-08T03:01:13;7.30;;;3.27;;
2462;SDS011;1243;54.298;10.172;2023-08-08T03:03:41;8.03;;;3.90;;
2462;SDS011;1243;54.298;10.172;2023-08-08T03:06:07;8.13;;;2.87;;
2462;SDS011;1243;54.298;10.172;2023-08-08T03:08:33;9.23;;;3.27;;
2462;SDS011;1243;54.298;10.172;2023-08-08T03:10:59;4.40;;;2.93;;
2462;SDS011;1243;54.298;10.172;2023-08-08T03:13:24;6.40;;;3.00;;
2462;SDS011;1243;54.298;10.172;2023-08-08T03:15:50;8.00;;;3.60;;
2462;SDS011;1243;54.298;10.172;2023-08-08T03:18:16;6.23;;;2.50;;
2462;SDS011;1243;54.298;10.172;2023-08-08T03:20:42;9.43;;;3.10;;
2462;SDS011;1243;54.298;10.172;2023-08-08T03:23:07;6.87;;;2.73;;
2462;SDS011;1243;54.298;10.172;2023-08-08T03:25:33;10.80;;;2.53;;
2462;SDS011;1243;54.298;10.172;2023-08-08T03:27:59;7.20;;;3.03;;
2462;SDS011;1243;54.298;10.172;2023-08-08T03:30:24;6.70;;;2.93;;
2462;SDS011;1243;54.298;10.172;2023-08-08T03:32:50;5.57;;;2.30;;
2462;SDS011;1243;54.298;10.172;2023-08-08T03:35:16;9.27;;;2.90;;
2462;SDS011;1243;54.298;10.172;2023-08-08T03:37:41;9.30;;;2.77;;
2462;SDS011;1243;54.298;10.172;2023-08-08T03:40:07;6.70;;;2.50;;
2462;SDS011;1243;54.298;10.172;2023-08-08T03:42:33;7.70;;;2.50;;
2462;SDS011;1243;54.298;10.172;2023-08-08T03:44:59;6.13;;;2.67;;
2462;SDS011;1243;54.298;10.172;2023-08-08T03:47:25;8.63;;;3.10;;
2462;SDS011;1243;54.298;10.172;2023-08-08T03:49:51;4.33;;;2.90;;
2462;SDS011;1243;54.298;10.172;2023-08-08T03:52:20;3.20;;;2.17;;
2462;SDS011;1243;54.298;10.172;2023-08-08T03:54:46;4.73;;;3.00;;
2462;SDS011;1243;54.298;10.172;2023-08-08T03:57:12;5.83;;;2.57;;
2462;SDS011;1243;54.298;10.172;2023-08-08T03:59:37;10.37;;;2.90;;
2462;SDS011;1243;54.298;10.172;2023-08-08T04:02:03;8.13;;;2.57;;
2462;SDS011;1243;54.298;10.172;2023-08-08T04:04:29;2.83;;;2.50;;
2462;SDS011;1243;54.298;10.172;2023-08-08T04:06:55;7.70;;;3.63;;
2462;SDS011;1243;54.298;10.172;2023-08-08T04:09:21;6.23;;;4.37;;
2462;SDS011;1243;54.298;10.172;2023-08-08T04:11:46;5.73;;;2.80;;
2462;SDS011;1243;54.298;10.172;2023-08-08T04:14:12;5.47;;;2.43;;
2462;SDS011;1243;54.298;10.172;2023-08-08T04:16:38;4.67;;;2.50;;
2462;SDS011;1243;54.298;10.172;2023-08-08T04:19:04;7.00;;;2.60;;
2462;SDS011;1243;54.298;10.172;2023-08-08T04:21:30;6.63;;;2.80;;
2462;SDS011;1243;54.298;10.172;2023-08-08T04:23:57;12.57;;;3.53;;
2462;SDS011;1243;54.298;10.172;2023-08-08T04:26:23;3.77;;;2.40;;
2462;SDS011;1243;54.298;10.172;2023-08-08T04:28:49;5.43;;;2.63;;
2462;SDS011;1243;54.298;10.172;2023-08-08T04:31:14;4.33;;;2.97;;
2462;SDS011;1243;54.298;10.172;2023-08-08T04:33:40;4.00;;;2.23;;
2462;SDS011;1243;54.298;10.172;2023-08-08T04:36:06;7.33;;;2.20;;
2462;SDS011;1243;54.298;10.172;2023-08-08T04:38:32;5.30;;;2.73;;
2462;SDS011;1243;54.298;10.172;2023-08-08T04:40:57;6.70;;;2.93;;
2462;SDS011;1243;54.298;10.172;2023-08-08T04:43:23;4.03;;;2.20;;
2462;SDS011;1243;54.298;10.172;2023-08-08T04:45:49;7.20;;;3.20;;
2462;SDS011;1243;54.298;10.172;2023-08-08T04:48:15;5.93;;;2.43;;
2462;SDS011;1243;54.298;10.172;2023-08-08T04:50:41;7.23;;;2.80;;
2462;SDS011;1243;54.298;10.172;2023-08-08T04:53:07;8.40;;;2.07;;
2462;SDS011;1243;54.298;10.172;2023-08-08T04:55:32;7.53;;;3.10;;
2462;SDS011;1243;54.298;10.172;2023-08-08T04:57:58;8.73;;;2.53;;
2462;SDS011;1243;54.298;10.172;2023-08-08T05:00:25;5.30;;;2.60;;
2462;SDS011;1243;54.298;10.172;2023-08-08T05:02:51;9.70;;;3.43;;
2462;SDS011;1243;54.298;10.172;2023-08-08T05:05:17;2.83;;;2.10;;
2462;SDS011;1243;54.298;10.172;2023-08-08T05:07:43;6.40;;;2.40;;
2462;SDS011;1243;54.298;10.172;2023-08-08T05:10:08;10.60;;;3.03;;
2462;SDS011;1243;54.298;10.172;2023-08-08T05:12:34;3.40;;;2.93;;
2462;SDS011;1243;54.298;10.172;2023-08-08T05:15:00;3.97;;;2.40;;
2462;SDS011;1243;54.298;10.172;2023-08-08T05:17:29;6.57;;;2.70;;
2462;SDS011;1243;54.298;10.172;2023-08-08T05:19:56;6.90;;;2.43;;
2462;SDS011;1243;54.298;10.172;2023-08-08T05:22:21;4.20;;;2.20;;
2462;SDS011;1243;54.298;10.172;2023-08-08T05:24:47;7.83;;;2.80;;
2462;SDS011;1243;54.298;10.172;2023-08-08T05:27:13;4.43;;;2.43;;
2462;SDS011;1243;54.298;10.172;2023-08-08T05:29:38;9.57;;;3.40;;
2462;SDS011;1243;54.298;10.172;2023-08-08T05:32:06;5.77;;;2.67;;
2462;SDS011;1243;54.298;10.172;2023-08-08T05:34:32;8.23;;;2.60;;
2462;SDS011;1243;54.298;10.172;2023-08-08T05:36:59;4.80;;;2.17;;
2462;SDS011;1243;54.298;10.172;2023-08-08T05:39:24;6.43;;;2.57;;
2462;SDS011;1243;54.298;10.172;2023-08-08T05:41:50;10.10;;;2.70;;
2462;SDS011;1243;54.298;10.172;2023-08-08T05:44:16;8.33;;;2.50;;
2462;SDS011;1243;54.298;10.172;2023-08-08T05:46:42;2.10;;;1.73;;
2462;SDS011;1243;54.298;10.172;2023-08-08T05:49:07;5.17;;;2.10;;
2462;SDS011;1243;54.298;10.172;2023-08-08T05:51:33;8.00;;;2.40;;
2462;SDS011;1243;54.298;10.172;2023-08-08T05:53:59;3.20;;;1.70;;
2462;SDS011;1243;54.298;10.172;2023-08-08T05:56:27;6.40;;;2.83;;
2462;SDS011;1243;54.298;10.172;2023-08-08T05:59:01;5.10;;;2.80;;
2462;SDS011;1243;54.298;10.172;2023-08-08T06:01:27;8.07;;;2.03;;
2462;SDS011;1243;54.298;10.172;2023-08-08T06:03:52;6.57;;;2.53;;
2462;SDS011;1243;54.298;10.172;2023-08-08T06:06:18;5.67;;;2.97;;
2462;SDS011;1243;54.298;10.172;2023-08-08T06:08:44;3.70;;;2.57;;
2462;SDS011;1243;54.298;10.172;2023-08-08T06:11:10;8.50;;;2.60;;
2462;SDS011;1243;54.298;10.172;2023-08-08T06:13:36;4.17;;;2.17;;
2462;SDS011;1243;54.298;10.172;2023-08-08T06:16:02;11.77;;;2.80;;
2462;SDS011;1243;54.298;10.172;2023-08-08T06:18:31;7.70;;;2.70;;
2462;SDS011;1243;54.298;10.172;2023-08-08T06:20:58;2.70;;;2.37;;
2462;SDS011;1243;54.298;10.172;2023-08-08T06:23:23;5.73;;;2.27;;
2462;SDS011;1243;54.298;10.172;2023-08-08T06:25:49;8.07;;;2.70;;
2462;SDS011;1243;54.298;10.172;2023-08-08T06:28:15;4.07;;;2.40;;
2462;SDS011;1243;54.298;10.172;2023-08-08T06:30:41;6.07;;;3.43;;
2462;SDS011;1243;54.298;10.172;2023-08-08T06:33:06;5.80;;;2.40;;
2462;SDS011;1243;54.298;10.172;2023-08-08T06:35:32;3.50;;;2.47;;
2462;SDS011;1243;54.298;10.172;2023-08-08T06:37:58;7.93;;;2.60;;
2462;SDS011;1243;54.298;10.172;2023-08-08T06:40:24;4.87;;;2.43;;
2462;SDS011;1243;54.298;10.172;2023-08-08T06:42:50;5.63;;;2.50;;
2462;SDS011;1243;54.298;10.172;2023-08-08T06:45:15;6.57;;;2.30;;
2462;SDS011;1243;54.298;10.172;2023-08-08T06:47:41;3.77;;;3.23;;
2462;SDS011;1243;54.298;10.172;2023-08-08T06:50:07;4.07;;;2.40;;
2462;SDS011;1243;54.298;10.172;2023-08-08T06:52:33;6.13;;;2.60;;
2462;SDS011;1243;54.298;10.172;2023-08-08T06:54:59;7.10;;;3.47;;
2462;SDS011;1243;54.298;10.172;2023-08-08T06:57:25;6.90;;;2.20;;
2462;SDS011;1243;54.298;10.172;2023-08-08T06:59:50;5.57;;;2.43;;
2462;SDS011;1243;54.298;10.172;2023-08-08T07:02:20;9.97;;;2.73;;
2462;SDS011;1243;54.298;10.172;2023-08-08T07:04:46;4.83;;;2.27;;
2462;SDS011;1243;54.298;10.172;2023-08-08T07:07:12;8.10;;;2.67;;
2462;SDS011;1243;54.298;10.172;2023-08-08T07:09:38;8.77;;;2.70;;
2462;SDS011;1243;54.298;10.172;2023-08-08T07:12:04;5.57;;;2.90;;
2462;SDS011;1243;54.298;10.172;2023-08-08T07:14:30;9.03;;;3.10;;
2462;SDS011;1243;54.298;10.172;2023-08-08T07:16:56;3.93;;;2.50;;
2462;SDS011;1243;54.298;10.172;2023-08-08T07:19:21;7.33;;;3.13;;
2462;SDS011;1243;54.298;10.172;2023-08-08T07:21:47;5.07;;;2.27;;
2462;SDS011;1243;54.298;10.172;2023-08-08T07:24:13;5.00;;;2.70;;
2462;SDS011;1243;54.298;10.172;2023-08-08T07:26:39;5.47;;;2.77;;
2462;SDS011;1243;54.298;10.172;2023-08-08T07:29:04;8.23;;;3.30;;
2462;SDS011;1243;54.298;10.172;2023-08-08T07:31:31;5.13;;;2.33;;
2462;SDS011;1243;54.298;10.172;2023-08-08T07:33:57;10.93;;;3.33;;
2462;SDS011;1243;54.298;10.172;2023-08-08T07:36:23;8.53;;;3.23;;
2462;SDS011;1243;54.298;10.172;2023-08-08T07:38:48;7.40;;;4.07;;
2462;SDS011;1243;54.298;10.172;2023-08-08T07:41:14;8.13;;;3.60;;
2462;SDS011;1243;54.298;10.172;2023-08-08T07:43:40;12.13;;;3.30;;
2462;SDS011;1243;54.298;10.172;2023-08-08T07:46:06;9.70;;;3.20;;
2462;SDS011;1243;54.298;10.172;2023-08-08T07:48:32;10.60;;;2.67;;
2462;SDS011;1243;54.298;10.172;2023-08-08T07:50:57;7.63;;;2.90;;
2462;SDS011;1243;54.298;10.172;2023-08-08T07:53:23;4.30;;;2.73;;
2462;SDS011;1243;54.298;10.172;2023-08-08T07:55:49;10.63;;;3.40;;
2462;SDS011;1243;54.298;10.172;2023-08-08T07:58:14;10.70;;;2.70;;
2462;SDS011;1243;54.298;10.172;2023-08-08T08:00:40;6.30;;;2.97;;
2462;SDS011;1243;54.298;10.172;2023-08-08T08:03:06;8.57;;;3.27;;
2462;SDS011;1243;54.298;10.172;2023-08-08T08:05:31;14.03;;;3.20;;
2462;SDS011;1243;54.298;10.172;2023-08-08T08:07:59;8.43;;;3.47;;
2462;SDS011;1243;54.298;10.172;2023-08-08T08:10:25;7.60;;;3.00;;
2462;SDS011;1243;54.298;10.172;2023-08-08T08:12:51;8.47;;;2.80;;
2462;SDS011;1243;54.298;10.172;2023-08-08T08:15:25;5.03;;;3.20;;
2462;SDS011;1243;54.298;10.172;2023-08-08T08:17:51;7.53;;;2.73;;
2462;SDS011;1243;54.298;10.172;2023-08-08T08:20:17;5.47;;;2.30;;
2462;SDS011;1243;54.298;10.172;2023-08-08T08:22:42;6.47;;;3.30;;
2462;SDS011;1243;54.298;10.172;2023-08-08T08:25:08;9.20;;;3.33;;
2462;SDS011;1243;54.298;10.172;2023-08-08T08:27:37;6.03;;;2.93;;
2462;SDS011;1243;54.298;10.172;2023-08-08T08:30:03;4.80;;;2.30;;
2462;SDS011;1243;54.298;10.172;2023-08-08T08:32:36;6.23;;;3.00;;
2462;SDS011;1243;54.298;10.172;2023-08-08T08:35:04;3.90;;;2.10;;
2462;SDS011;1243;54.298;10.172;2023-08-08T08:37:31;4.80;;;2.53;;
2462;SDS011;1243;54.298;10.172;2023-08-08T08:39:57;5.80;;;3.10;;
2462;SDS011;1243;54.298;10.172;2023-08-08T08:42:23;4.87;;;2.57;;
2462;SDS011;1243;54.298;10.172;2023-08-08T08:44:49;8.50;;;3.23;;
2462;SDS011;1243;54.298;10.172;2023-08-08T08:47:17;9.03;;;2.13;;
2462;SDS011;1243;54.298;10.172;2023-08-08T08:49:45;5.07;;;4.53;;
2462;SDS011;1243;54.298;10.172;2023-08-08T08:52:11;5.83;;;2.20;;
2462;SDS011;1243;54.298;10.172;2023-08-08T08:54:37;8.03;;;2.50;;
2462;SDS011;1243;54.298;10.172;2023-08-08T08:57:04;4.40;;;2.07;;
2462;SDS011;1243;54.298;10.172;2023-08-08T08:59:30;5.67;;;2.40;;
2462;SDS011;1243;54.298;10.172;2023-08-08T09:01:56;3.97;;;1.80;;
2462;SDS011;1243;54.298;10.172;2023-08-08T09:04:22;2.90;;;2.40;;
2462;SDS011;1243;54.298;10.172;2023-08-08T09:06:49;9.63;;;2.70;;
2462;SDS011;1243;54.298;10.172;2023-08-08T09:09:16;8.43;;;4.27;;
2462;SDS011;1243;54.298;10.172;2023-08-08T09:11:45;6.93;;;4.20;;
2462;SDS011;1243;54.298;10.172;2023-08-08T09:14:20;3.30;;;2.17;;
2462;SDS011;1243;54.298;10.172;2023-08-08T09:16:48;4.80;;;2.33;;
2462;SDS011;1243;54.298;10.172;2023-08-08T09:19:15;4.03;;;2.00;;
2462;SDS011;1243;54.298;10.172;2023-08-08T09:21:43;7.03;;;2.87;;
2462;SDS011;1243;54.298;10.172;2023-08-08T09:24:08;3.57;;;2.00;;
2462;SDS011;1243;54.298;10.172;2023-08-08T09:26:34;6.73;;;2.03;;
2462;SDS011;1243;54.298;10.172;2023-08-08T09:29:01;6.23;;;1.90;;
2462;SDS011;1243;54.298;10.172;2023-08-08T09:31:28;4.57;;;1.70;;
2462;SDS011;1243;54.298;10.172;2023-08-08T09:33:58;6.30;;;2.13;;
2462;SDS011;1243;54.298;10.172;2023-08-08T09:36:24;9.13;;;1.90;;
2462;SDS011;1243;54.298;10.172;2023-08-08T09:38:51;5.60;;;2.07;;
2462;SDS011;1243;54.298;10.172;2023-08-08T09:41:18;3.97;;;1.60;;
2462;SDS011;1243;54.298;10.172;2023-08-08T09:43:47;5.70;;;2.03;;
2462;SDS011;1243;54.298;10.172;2023-08-08T09:46:13;5.47;;;1.73;;
2462;SDS011;1243;54.298;10.172;2023-08-08T09:48:40;6.13;;;2.00;;
2462;SDS011;1243;54.298;10.172;2023-08-08T09:51:07;4.33;;;1.97;;
2462;SDS011;1243;54.298;10.172;2023-08-08T09:53:33;9.10;;;2.03;;
2462;SDS011;1243;54.298;10.172;2023-08-08T09:56:00;4.53;;;2.20;;
2462;SDS011;1243;54.298;10.172;2023-08-08T09:58:28;3.70;;;1.77;;
2462;SDS011;1243;54.298;10.172;2023-08-08T10:00:54;4.57;;;2.23;;
2462;SDS011;1243;54.298;10.172;2023-08-08T10:03:20;5.80;;;2.53;;
2462;SDS011;1243;54.298;10.172;2023-08-08T10:05:47;2.93;;;2.00;;
2462;SDS011;1243;54.298;10.172;2023-08-08T10:08:16;4.47;;;1.50;;
2462;SDS011;1243;54.298;10.172;2023-08-08T10:10:43;3.67;;;2.00;;
2462;SDS011;1243;54.298;10.172;2023-08-08T10:13:18;9.77;;;2.67;;
2462;SDS011;1243;54.298;10.172;2023-08-08T10:15:50;10.93;;;2.13;;
2462;SDS011;1243;54.298;10.172;2023-08-08T10:18:17;5.70;;;2.17;;
2462;SDS011;1243;54.298;10.172;2023-08-08T10:20:46;8.37;;;2.17;;
2462;SDS011;1243;54.298;10.172;2023-08-08T10:23:14;7.33;;;2.00;;
2462;SDS011;1243;54.298;10.172;2023-08-08T10:25:48;8.80;;;2.07;;
2462;SDS011;1243;54.298;10.172;2023-08-08T10:28:17;10.93;;;2.33;;
2462;SDS011;1243;54.298;10.172;2023-08-08T10:30:47;4.00;;;2.17;;
2462;SDS011;1243;54.298;10.172;2023-08-08T10:33:21;3.80;;;2.10;;
2462;SDS011;1243;54.298;10.172;2023-08-08T10:35:58;6.00;;;1.53;;
2462;SDS011;1243;54.298;10.172;2023-08-08T10:38:39;5.53;;;1.90;;
2462;SDS011;1243;54.298;10.172;2023-08-08T10:41:08;3.57;;;1.83;;
2462;SDS011;1243;54.298;10.172;2023-08-08T10:43:37;8.97;;;1.43;;
2462;SDS011;1243;54.298;10.172;2023-08-08T10:46:03;4.57;;;1.60;;
2462;SDS011;1243;54.298;10.172;2023-08-08T10:48:30;5.93;;;1.63;;
2462;SDS011;1243;54.298;10.172;2023-08-08T10:50:59;8.30;;;1.30;;
2462;SDS011;1243;54.298;10.172;2023-08-08T10:53:26;3.87;;;1.33;;
2462;SDS011;1243;54.298;10.172;2023-08-08T10:55:59;3.13;;;1.70;;
2462;SDS011;1243;54.298;10.172;2023-08-08T10:58:36;3.20;;;1.50;;
2462;SDS011;1243;54.298;10.172;2023-08-08T11:01:03;5.23;;;1.37;;
2462;SDS011;1243;54.298;10.172;2023-08-08T11:03:37;3.43;;;1.93;;
2462;SDS011;1243;54.298;10.172;2023-08-08T11:06:08;3.93;;;1.30;;
2462;SDS011;1243;54.298;10.172;2023-08-08T11:08:34;3.83;;;1.60;;
2462;SDS011;1243;54.298;10.172;2023-08-08T11:11:04;2.57;;;2.00;;
2462;SDS011;1243;54.298;10.172;2023-08-08T11:13:31;3.37;;;1.57;;
2462;SDS011;1243;54.298;10.172;2023-08-08T11:15:57;1.93;;;1.47;;
2462;SDS011;1243;54.298;10.172;2023-08-08T11:18:23;2.90;;;1.03;;
2462;SDS011;1243;54.298;10.172;2023-08-08T11:20:50;4.47;;;1.60;;
2462;SDS011;1243;54.298;10.172;2023-08-08T11:23:16;2.17;;;1.13;;
2462;SDS011;1243;54.298;10.172;2023-08-08T11:25:44;4.50;;;1.43;;
2462;SDS011;1243;54.298;10.172;2023-08-08T11:28:11;4.07;;;1.83;;
2462;SDS011;1243;54.298;10.172;2023-08-08T11:30:38;4.70;;;1.57;;
2462;SDS011;1243;54.298;10.172;2023-08-08T11:33:13;5.17;;;1.87;;
2462;SDS011;1243;54.298;10.172;2023-08-08T11:35:43;1.63;;;1.23;;
2462;SDS011;1243;54.298;10.172;2023-08-08T11:38:11;1.70;;;1.47;;
2462;SDS011;1243;54.298;10.172;2023-08-08T11:40:38;5.07;;;1.57;;
2462;SDS011;1243;54.298;10.172;2023-08-08T11:43:04;3.77;;;1.40;;
2462;SDS011;1243;54.298;10.172;2023-08-08T11:45:31;1.37;;;1.10;;
2462;SDS011;1243;54.298;10.172;2023-08-08T11:47:57;5.33;;;1.73;;
2462;SDS011;1243;54.298;10.172;2023-08-08T11:50:24;3.60;;;1.50;;
2462;SDS011;1243;54.298;10.172;2023-08-08T11:52:52;4.33;;;1.60;;
2462;SDS011;1243;54.298;10.172;2023-08-08T11:55:19;5.23;;;1.53;;
2462;SDS011;1243;54.298;10.172;2023-08-08T11:57:49;1.50;;;1.40;;
2462;SDS011;1243;54.298;10.172;2023-08-08T12:00:15;3.27;;;1.33;;
2462;SDS011;1243;54.298;10.172;2023-08-08T12:02:43;4.20;;;1.10;;
2462;SDS011;1243;54.298;10.172;2023-08-08T12:05:10;1.50;;;1.03;;
2462;SDS011;1243;54.298;10.172;2023-08-08T12:07:39;1.40;;;1.00;;
2462;SDS011;1243;54.298;10.172;2023-08-08T12:10:13;2.33;;;1.00;;
2462;SDS011;1243;54.298;10.172;2023-08-08T12:12:44;1.77;;;0.90;;
2462;SDS011;1243;54.298;10.172;2023-08-08T12:15:11;3.17;;;0.97;;
2462;SDS011;1243;54.298;10.172;2023-08-08T12:17:37;2.10;;;1.40;;
2462;SDS011;1243;54.298;10.172;2023-08-08T12:20:03;3.50;;;1.00;;
2462;SDS011;1243;54.298;10.172;2023-08-08T12:22:31;3.87;;;1.17;;
2462;SDS011;1243;54.298;10.172;2023-08-08T12:24:57;4.73;;;1.63;;
2462;SDS011;1243;54.298;10.172;2023-08-08T12:27:22;2.03;;;1.50;;
2462;SDS011;1243;54.298;10.172;2023-08-08T12:29:48;2.03;;;1.23;;
2462;SDS011;1243;54.298;10.172;2023-08-08T12:32:14;2.20;;;1.10;;
2462;SDS011;1243;54.298;10.172;2023-08-08T12:34:40;1.70;;;0.80;;
2462;SDS011;1243;54.298;10.172;2023-08-08T12:37:05;2.50;;;0.90;;
2462;SDS011;1243;54.298;10.172;2023-08-08T12:39:31;3.67;;;1.50;;
2462;SDS011;1243;54.298;10.172;2023-08-08T12:41:57;2.73;;;1.00;;
2462;SDS011;1243;54.298;10.172;2023-08-08T12:44:22;1.50;;;0.97;;
2462;SDS011;1243;54.298;10.172;2023-08-08T12:46:48;3.97;;;1.10;;
2462;SDS011;1243;54.298;10.172;2023-08-08T12:49:14;2.80;;;1.03;;
2462;SDS011;1243;54.298;10.172;2023-08-08T12:51:40;3.50;;;1.40;;
2462;SDS011;1243;54.298;10.172;2023-08-08T12:54:05;3.60;;;1.73;;
2462;SDS011;1243;54.298;10.172;2023-08-08T12:56:31;2.37;;;1.00;;
2462;SDS011;1243;54.298;10.172;2023-08-08T12:58:57;3.53;;;1.00;;
2462;SDS011;1243;54.298;10.172;2023-08-08T13:01:23;4.50;;;1.23;;
2462;SDS011;1243;54.298;10.172;2023-08-08T13:03:50;2.47;;;1.23;;
2462;SDS011;1243;54.298;10.172;2023-08-08T13:06:16;3.33;;;1.43;;
2462;SDS011;1243;54.298;10.172;2023-08-08T13:08:41;3.70;;;1.53;;
2462;SDS011;1243;54.298;10.172;2023-08-08T13:11:07;4.50;;;1.60;;
2462;SDS011;1243;54.298;10.172;2023-08-08T13:13:33;7.90;;;2.50;;
2462;SDS011;1243;54.298;10.172;2023-08-08T13:15:59;5.90;;;1.60;;
2462;SDS011;1243;54.298;10.172;2023-08-08T13:18:25;2.67;;;1.43;;
2462;SDS011;1243;54.298;10.172;2023-08-08T13:20:50;1.67;;;1.27;;
2462;SDS011;1243;54.298;10.172;2023-08-08T13:23:17;7.27;;;1.53;;
2462;SDS011;1243;54.298;10.172;2023-08-08T13:25:43;7.43;;;1.50;;
2462;SDS011;1243;54.298;10.172;2023-08-08T13:28:09;4.20;;;1.80;;
2462;SDS011;1243;54.298;10.172;2023-08-08T13:30:35;1.60;;;1.50;;
2462;SDS011;1243;54.298;10.172;2023-08-08T13:33:00;4.80;;;1.60;;
2462;SDS011;1243;54.298;10.172;2023-08-08T13:35:27;2.57;;;1.20;;
2462;SDS011;1243;54.298;10.172;2023-08-08T13:37:52;2.17;;;1.17;;
2462;SDS011;1243;54.298;10.172;2023-08-08T13:40:19;2.80;;;1.53;;
2462;SDS011;1243;54.298;10.172;2023-08-08T13:42:45;2.50;;;1.40;;
2462;SDS011;1243;54.298;10.172;2023-08-08T13:45:16;4.40;;;1.73;;
2462;SDS011;1243;54.298;10.172;2023-08-08T13:47:43;4.60;;;1.67;;
2462;SDS011;1243;54.298;10.172;2023-08-08T13:50:09;2.90;;;1.03;;
2462;SDS011;1243;54.298;10.172;2023-08-08T13:52:34;3.13;;;1.60;;
2462;SDS011;1243;54.298;10.172;2023-08-08T13:55:00;3.50;;;1.50;;
2462;SDS011;1243;54.298;10.172;2023-08-08T13:57:26;1.47;;;1.37;;
2462;SDS011;1243;54.298;10.172;2023-08-08T13:59:52;1.77;;;1.47;;
2462;SDS011;1243;54.298;10.172;2023-08-08T14:02:18;2.40;;;1.63;;
2462;SDS011;1243;54.298;10.172;2023-08-08T14:04:44;3.60;;;1.83;;
2462;SDS011;1243;54.298;10.172;2023-08-08T14:07:10;4.27;;;1.77;;
2462;SDS011;1243;54.298;10.172;2023-08-08T14:09:36;3.10;;;1.73;;
2462;SDS011;1243;54.298;10.172;2023-08-08T14:12:02;3.70;;;1.73;;
2462;SDS011;1243;54.298;10.172;2023-08-08T14:14:28;4.33;;;1.50;;
2462;SDS011;1243;54.298;10.172;2023-08-08T14:16:54;4.30;;;1.40;;
2462;SDS011;1243;54.298;10.172;2023-08-08T14:19:20;6.13;;;2.07;;
2462;SDS011;1243;54.298;10.172;2023-08-08T14:21:45;5.30;;;1.73;;
2462;SDS011;1243;54.298;10.172;2023-08-08T14:24:11;3.70;;;1.97;;
2462;SDS011;1243;54.298;10.172;2023-08-08T14:26:37;3.83;;;1.50;;
2462;SDS011;1243;54.298;10.172;2023-08-08T14:29:02;4.30;;;1.57;;
2462;SDS011;1243;54.298;10.172;2023-08-08T14:31:29;7.50;;;1.70;;
2462;SDS011;1243;54.298;10.172;2023-08-08T14:33:56;4.87;;;1.90;;
2462;SDS011;1243;54.298;10.172;2023-08-08T14:36:21;6.37;;;1.47;;
2462;SDS011;1243;54.298;10.172;2023-08-08T14:38:47;1.70;;;1.50;;
2462;SDS011;1243;54.298;10.172;2023-08-08T14:41:13;1.67;;;1.50;;
2462;SDS011;1243;54.298;10.172;2023-08-08T14:43:39;7.40;;;1.60;;
2462;SDS011;1243;54.298;10.172;2023-08-08T14:46:04;3.67;;;1.73;;
2462;SDS011;1243;54.298;10.172;2023-08-08T14:48:30;9.50;;;2.47;;
2462;SDS011;1243;54.298;10.172;2023-08-08T14:50:56;6.93;;;1.80;;
2462;SDS011;1243;54.298;10.172;2023-08-08T14:53:22;4.30;;;2.30;;
2462;SDS011;1243;54.298;10.172;2023-08-08T14:55:48;7.37;;;2.10;;